sensor_id;sensor_type;location;lat;lon;timestamp;P1;durP1;ratioP1;P2;durP2;ratioP2
4138;SDS011;2083;51.034;6.996;2022-12-18T00:01:37;0.20;;;0.20;;
4138;SDS011;2083;51.034;6.996;2022-12-18T00:04:04;0.73;;;0.73;;
4138;SDS011;2083;51.034;6.996;2022-12-18T00:06:31;0.20;;;0.20;;
4138;SDS011;2083;51.034;6.996;2022-12-18T00:08:58;0.77;;;0.77;;
4138;SDS011;2083;51.034;6.996;2022-12-18T00:11:26;0.70;;;0.70;;
4138;SDS011;2083;51.034;6.996;2022-12-18T00:13:53;1.83;;;1.83;;
4138;SDS011;2083;51.034;6.996;2022-12-18T00:16:19;0.20;;;0.20;;
4138;SDS011;2083;51.034;6.996;2022-12-18T00:18:46;0.23;;;0.23;;
4138;SDS011;2083;51.034;6.996;2022-12-18T00:21:13;0.30;;;0.30;;
4138;SDS011;2083;51.034;6.996;2022-12-18T00:23:40;0.43;;;0.43;;
4138;SDS011;2083;51.034;6.996;2022-12-18T00:26:08;0.90;;;0.90;;
4138;SDS011;2083;51.034;6.996;2022-12-18T00:28:35;0.73;;;0.73;;
4138;SDS011;2083;51.034;6.996;2022-12-18T00:31:02;0.70;;;0.70;;
4138;SDS011;2083;51.034;6.996;2022-12-18T00:33:28;0.20;;;0.20;;
4138;SDS011;2083;51.034;6.996;2022-12-18T00:35:54;3.50;;;3.30;;
4138;SDS011;2083;51.034;6.996;2022-12-18T00:38:20;1.43;;;0.60;;
4138;SDS011;2083;51.034;6.996;2022-12-18T00:40:46;0.40;;;0.40;;
4138;SDS011;2083;51.034;6.996;2022-12-18T00:43:11;1.73;;;1.63;;
4138;SDS011;2083;51.034;6.996;2022-12-18T00:45:37;0.20;;;0.20;;
4138;SDS011;2083;51.034;6.996;2022-12-18T00:48:03;10.43;;;2.50;;
4138;SDS011;2083;51.034;6.996;2022-12-18T00:50:29;0.77;;;0.40;;
4138;SDS011;2083;51.034;6.996;2022-12-18T00:52:55;0.30;;;0.30;;
4138;SDS011;2083;51.034;6.996;2022-12-18T00:55:21;4.33;;;0.97;;
4138;SDS011;2083;51.034;6.996;2022-12-18T00:57:47;0.20;;;0.20;;
4138;SDS011;2083;51.034;6.996;2022-12-18T01:00:14;0.20;;;0.20;;
4138;SDS011;2083;51.034;6.996;2022-12-18T01:02:41;2.83;;;2.73;;
4138;SDS011;2083;51.034;6.996;2022-12-18T01:05:08;4.67;;;4.50;;
4138;SDS011;2083;51.034;6.996;2022-12-18T01:07:34;1.53;;;1.53;;
4138;SDS011;2083;51.034;6.996;2022-12-18T01:10:00;4.70;;;3.50;;
4138;SDS011;2083;51.034;6.996;2022-12-18T01:12:26;0.20;;;0.20;;
4138;SDS011;2083;51.034;6.996;2022-12-18T01:14:52;1.57;;;1.57;;
4138;SDS011;2083;51.034;6.996;2022-12-18T01:17:18;0.30;;;0.30;;
4138;SDS011;2083;51.034;6.996;2022-12-18T01:19:44;0.20;;;0.20;;
4138;SDS011;2083;51.034;6.996;2022-12-18T01:22:10;1.33;;;1.23;;
4138;SDS011;2083;51.034;6.996;2022-12-18T01:24:35;0.20;;;0.20;;
4138;SDS011;2083;51.034;6.996;2022-12-18T01:27:01;0.30;;;0.30;;
4138;SDS011;2083;51.034;6.996;2022-12-18T01:29:27;0.40;;;0.40;;
4138;SDS011;2083;51.034;6.996;2022-12-18T01:31:54;0.50;;;0.50;;
4138;SDS011;2083;51.034;6.996;2022-12-18T01:34:21;2.50;;;1.53;;
4138;SDS011;2083;51.034;6.996;2022-12-18T01:36:47;0.30;;;0.30;;
4138;SDS011;2083;51.034;6.996;2022-12-18T01:39:13;0.20;;;0.20;;
4138;SDS011;2083;51.034;6.996;2022-12-18T01:41:39;0.77;;;0.77;;
4138;SDS011;2083;51.034;6.996;2022-12-18T01:47:09;0.20;;;0.20;;
4138;SDS011;2083;51.034;6.996;2022-12-18T01:49:38;0.30;;;0.30;;
4138;SDS011;2083;51.034;6.996;2022-12-18T01:52:04;0.20;;;0.20;;
4138;SDS011;2083;51.034;6.996;2022-12-18T01:54:30;0.20;;;0.20;;
4138;SDS011;2083;51.034;6.996;2022-12-18T01:56:56;3.23;;;3.03;;
4138;SDS011;2083;51.034;6.996;2022-12-18T01:59:22;2.87;;;0.73;;
4138;SDS011;2083;51.034;6.996;2022-12-18T02:01:48;0.60;;;0.57;;
4138;SDS011;2083;51.034;6.996;2022-12-18T02:04:21;0.20;;;0.20;;
4138;SDS011;2083;51.034;6.996;2022-12-18T02:06:47;0.70;;;0.70;;
4138;SDS011;2083;51.034;6.996;2022-12-18T02:09:18;0.90;;;0.47;;
4138;SDS011;2083;51.034;6.996;2022-12-18T02:11:50;0.90;;;0.87;;
4138;SDS011;2083;51.034;6.996;2022-12-18T02:14:22;0.97;;;0.97;;
4138;SDS011;2083;51.034;6.996;2022-12-18T02:24:45;0.57;;;0.57;;
4138;SDS011;2083;51.034;6.996;2022-12-18T02:27:13;0.53;;;0.53;;
4138;SDS011;2083;51.034;6.996;2022-12-18T02:29:40;1.03;;;0.93;;
4138;SDS011;2083;51.034;6.996;2022-12-18T02:32:11;3.90;;;1.63;;
4138;SDS011;2083;51.034;6.996;2022-12-18T02:34:38;4.00;;;3.63;;
4138;SDS011;2083;51.034;6.996;2022-12-18T02:37:05;2.30;;;2.20;;
4138;SDS011;2083;51.034;6.996;2022-12-18T02:39:33;1.13;;;1.13;;
4138;SDS011;2083;51.034;6.996;2022-12-18T02:41:59;1.70;;;1.60;;
4138;SDS011;2083;51.034;6.996;2022-12-18T02:44:27;0.77;;;0.77;;
4138;SDS011;2083;51.034;6.996;2022-12-18T02:46:53;0.30;;;0.30;;
4138;SDS011;2083;51.034;6.996;2022-12-18T02:49:36;2.60;;;2.40;;
4138;SDS011;2083;51.034;6.996;2022-12-18T02:54:45;9.43;;;2.10;;
4138;SDS011;2083;51.034;6.996;2022-12-18T02:57:33;1.87;;;1.87;;
4138;SDS011;2083;51.034;6.996;2022-12-18T03:00:06;0.83;;;0.80;;
4138;SDS011;2083;51.034;6.996;2022-12-18T03:05:04;0.47;;;0.47;;
4138;SDS011;2083;51.034;6.996;2022-12-18T03:07:37;0.80;;;0.80;;
4138;SDS011;2083;51.034;6.996;2022-12-18T03:10:05;0.30;;;0.30;;
4138;SDS011;2083;51.034;6.996;2022-12-18T03:12:34;1.13;;;0.97;;
4138;SDS011;2083;51.034;6.996;2022-12-18T03:17:27;0.97;;;0.97;;
4138;SDS011;2083;51.034;6.996;2022-12-18T03:19:56;0.30;;;0.30;;
4138;SDS011;2083;51.034;6.996;2022-12-18T03:22:23;2.40;;;2.20;;
4138;SDS011;2083;51.034;6.996;2022-12-18T03:24:51;0.83;;;0.83;;
4138;SDS011;2083;51.034;6.996;2022-12-18T03:27:18;1.40;;;1.40;;
4138;SDS011;2083;51.034;6.996;2022-12-18T03:29:47;1.57;;;1.57;;
4138;SDS011;2083;51.034;6.996;2022-12-18T03:32:20;2.00;;;1.90;;
4138;SDS011;2083;51.034;6.996;2022-12-18T03:34:47;0.63;;;0.63;;
4138;SDS011;2083;51.034;6.996;2022-12-18T03:37:14;0.20;;;0.20;;
4138;SDS011;2083;51.034;6.996;2022-12-18T03:39:40;0.97;;;0.97;;
4138;SDS011;2083;51.034;6.996;2022-12-18T03:42:17;0.40;;;0.40;;
4138;SDS011;2083;51.034;6.996;2022-12-18T03:44:47;0.20;;;0.20;;
4138;SDS011;2083;51.034;6.996;2022-12-18T03:49:46;0.30;;;0.30;;
4138;SDS011;2083;51.034;6.996;2022-12-18T03:52:16;1.43;;;1.43;;
4138;SDS011;2083;51.034;6.996;2022-12-18T03:54:44;0.70;;;0.70;;
4138;SDS011;2083;51.034;6.996;2022-12-18T03:57:20;3.53;;;3.27;;
4138;SDS011;2083;51.034;6.996;2022-12-18T03:59:48;0.50;;;0.50;;
4138;SDS011;2083;51.034;6.996;2022-12-18T04:02:15;4.17;;;3.97;;
4138;SDS011;2083;51.034;6.996;2022-12-18T04:04:42;1.60;;;1.57;;
4138;SDS011;2083;51.034;6.996;2022-12-18T04:07:08;0.37;;;0.37;;
4138;SDS011;2083;51.034;6.996;2022-12-18T04:09:34;0.90;;;0.90;;
4138;SDS011;2083;51.034;6.996;2022-12-18T04:12:02;0.40;;;0.40;;
4138;SDS011;2083;51.034;6.996;2022-12-18T04:14:28;0.30;;;0.30;;
4138;SDS011;2083;51.034;6.996;2022-12-18T04:16:53;0.50;;;0.50;;
4138;SDS011;2083;51.034;6.996;2022-12-18T04:19:19;1.43;;;1.43;;
4138;SDS011;2083;51.034;6.996;2022-12-18T04:21:45;0.20;;;0.20;;
4138;SDS011;2083;51.034;6.996;2022-12-18T04:24:11;2.50;;;2.00;;
4138;SDS011;2083;51.034;6.996;2022-12-18T04:26:37;1.13;;;0.70;;
4138;SDS011;2083;51.034;6.996;2022-12-18T04:29:03;0.67;;;0.67;;
4138;SDS011;2083;51.034;6.996;2022-12-18T04:31:29;1.90;;;1.23;;
4138;SDS011;2083;51.034;6.996;2022-12-18T04:33:55;0.77;;;0.77;;
4138;SDS011;2083;51.034;6.996;2022-12-18T04:36:21;1.07;;;1.07;;
4138;SDS011;2083;51.034;6.996;2022-12-18T04:38:47;0.40;;;0.40;;
4138;SDS011;2083;51.034;6.996;2022-12-18T04:41:13;0.40;;;0.40;;
4138;SDS011;2083;51.034;6.996;2022-12-18T04:43:39;0.53;;;0.53;;
4138;SDS011;2083;51.034;6.996;2022-12-18T04:46:05;4.33;;;2.63;;
4138;SDS011;2083;51.034;6.996;2022-12-18T04:48:31;0.97;;;0.97;;
4138;SDS011;2083;51.034;6.996;2022-12-18T04:50:57;1.63;;;1.63;;
4138;SDS011;2083;51.034;6.996;2022-12-18T04:53:23;0.70;;;0.70;;
4138;SDS011;2083;51.034;6.996;2022-12-18T04:55:49;5.13;;;1.90;;
4138;SDS011;2083;51.034;6.996;2022-12-18T04:58:15;0.83;;;0.83;;
4138;SDS011;2083;51.034;6.996;2022-12-18T05:00:41;0.80;;;0.80;;
4138;SDS011;2083;51.034;6.996;2022-12-18T05:03:07;1.43;;;1.43;;
4138;SDS011;2083;51.034;6.996;2022-12-18T05:05:34;0.97;;;0.97;;
4138;SDS011;2083;51.034;6.996;2022-12-18T05:08:00;0.93;;;0.93;;
4138;SDS011;2083;51.034;6.996;2022-12-18T05:10:26;1.90;;;1.90;;
4138;SDS011;2083;51.034;6.996;2022-12-18T05:12:52;2.30;;;1.77;;
4138;SDS011;2083;51.034;6.996;2022-12-18T05:15:30;2.73;;;1.03;;
4138;SDS011;2083;51.034;6.996;2022-12-18T05:17:57;1.93;;;1.83;;
4138;SDS011;2083;51.034;6.996;2022-12-18T05:20:23;0.57;;;0.57;;
4138;SDS011;2083;51.034;6.996;2022-12-18T05:22:50;0.77;;;0.77;;
4138;SDS011;2083;51.034;6.996;2022-12-18T05:25:16;0.43;;;0.43;;
4138;SDS011;2083;51.034;6.996;2022-12-18T05:27:42;0.70;;;0.60;;
4138;SDS011;2083;51.034;6.996;2022-12-18T05:30:08;4.00;;;2.73;;
4138;SDS011;2083;51.034;6.996;2022-12-18T05:32:34;0.87;;;0.87;;
4138;SDS011;2083;51.034;6.996;2022-12-18T05:35:00;5.77;;;3.57;;
4138;SDS011;2083;51.034;6.996;2022-12-18T05:37:26;0.70;;;0.70;;
4138;SDS011;2083;51.034;6.996;2022-12-18T05:39:52;1.10;;;1.10;;
4138;SDS011;2083;51.034;6.996;2022-12-18T05:42:18;0.37;;;0.37;;
4138;SDS011;2083;51.034;6.996;2022-12-18T05:44:44;0.70;;;0.70;;
4138;SDS011;2083;51.034;6.996;2022-12-18T05:47:10;1.40;;;1.40;;
4138;SDS011;2083;51.034;6.996;2022-12-18T05:49:36;1.63;;;1.63;;
4138;SDS011;2083;51.034;6.996;2022-12-18T05:52:02;0.30;;;0.30;;
4138;SDS011;2083;51.034;6.996;2022-12-18T05:54:28;1.57;;;1.47;;
4138;SDS011;2083;51.034;6.996;2022-12-18T05:56:54;1.87;;;1.83;;
4138;SDS011;2083;51.034;6.996;2022-12-18T05:59:20;0.50;;;0.50;;
4138;SDS011;2083;51.034;6.996;2022-12-18T06:01:46;0.27;;;0.27;;
4138;SDS011;2083;51.034;6.996;2022-12-18T06:04:12;0.77;;;0.77;;
4138;SDS011;2083;51.034;6.996;2022-12-18T06:06:38;1.47;;;1.47;;
4138;SDS011;2083;51.034;6.996;2022-12-18T06:09:04;0.30;;;0.30;;
4138;SDS011;2083;51.034;6.996;2022-12-18T06:11:35;0.83;;;0.83;;
4138;SDS011;2083;51.034;6.996;2022-12-18T06:14:02;1.43;;;1.33;;
4138;SDS011;2083;51.034;6.996;2022-12-18T06:16:28;0.20;;;0.20;;
4138;SDS011;2083;51.034;6.996;2022-12-18T06:18:58;0.60;;;0.60;;
4138;SDS011;2083;51.034;6.996;2022-12-18T06:21:25;1.40;;;1.40;;
4138;SDS011;2083;51.034;6.996;2022-12-18T06:23:51;1.53;;;1.53;;
4138;SDS011;2083;51.034;6.996;2022-12-18T06:26:16;1.20;;;1.20;;
4138;SDS011;2083;51.034;6.996;2022-12-18T06:28:42;1.33;;;1.33;;
4138;SDS011;2083;51.034;6.996;2022-12-18T06:31:09;0.20;;;0.20;;
4138;SDS011;2083;51.034;6.996;2022-12-18T06:33:35;6.00;;;2.80;;
4138;SDS011;2083;51.034;6.996;2022-12-18T06:36:02;0.20;;;0.20;;
4138;SDS011;2083;51.034;6.996;2022-12-18T06:38:29;1.23;;;1.23;;
4138;SDS011;2083;51.034;6.996;2022-12-18T06:40:55;2.10;;;0.93;;
4138;SDS011;2083;51.034;6.996;2022-12-18T06:43:20;0.50;;;0.50;;
4138;SDS011;2083;51.034;6.996;2022-12-18T06:45:46;0.40;;;0.40;;
4138;SDS011;2083;51.034;6.996;2022-12-18T06:48:17;0.93;;;0.93;;
4138;SDS011;2083;51.034;6.996;2022-12-18T06:50:43;1.33;;;1.33;;
4138;SDS011;2083;51.034;6.996;2022-12-18T06:53:09;16.77;;;3.00;;
4138;SDS011;2083;51.034;6.996;2022-12-18T06:55:35;2.20;;;2.10;;
4138;SDS011;2083;51.034;6.996;2022-12-18T06:58:01;4.20;;;3.43;;
4138;SDS011;2083;51.034;6.996;2022-12-18T07:00:28;5.20;;;2.10;;
4138;SDS011;2083;51.034;6.996;2022-12-18T07:02:54;2.77;;;2.50;;
4138;SDS011;2083;51.034;6.996;2022-12-18T07:05:20;0.77;;;0.77;;
4138;SDS011;2083;51.034;6.996;2022-12-18T07:07:46;0.73;;;0.73;;
4138;SDS011;2083;51.034;6.996;2022-12-18T07:10:12;1.07;;;1.07;;
4138;SDS011;2083;51.034;6.996;2022-12-18T07:12:38;2.13;;;2.03;;
4138;SDS011;2083;51.034;6.996;2022-12-18T07:15:04;0.37;;;0.37;;
4138;SDS011;2083;51.034;6.996;2022-12-18T07:17:30;1.70;;;1.60;;
4138;SDS011;2083;51.034;6.996;2022-12-18T07:19:56;9.73;;;5.67;;
4138;SDS011;2083;51.034;6.996;2022-12-18T07:22:22;0.70;;;0.70;;
4138;SDS011;2083;51.034;6.996;2022-12-18T07:24:48;9.23;;;3.50;;
4138;SDS011;2083;51.034;6.996;2022-12-18T07:27:14;7.20;;;2.77;;
4138;SDS011;2083;51.034;6.996;2022-12-18T07:29:40;5.00;;;2.53;;
4138;SDS011;2083;51.034;6.996;2022-12-18T07:32:06;0.50;;;0.50;;
4138;SDS011;2083;51.034;6.996;2022-12-18T07:34:32;0.80;;;0.80;;
4138;SDS011;2083;51.034;6.996;2022-12-18T07:36:58;5.70;;;3.17;;
4138;SDS011;2083;51.034;6.996;2022-12-18T07:39:24;2.60;;;2.60;;
4138;SDS011;2083;51.034;6.996;2022-12-18T07:41:50;2.40;;;2.30;;
4138;SDS011;2083;51.034;6.996;2022-12-18T07:44:34;3.20;;;3.00;;
4138;SDS011;2083;51.034;6.996;2022-12-18T07:47:00;6.83;;;3.67;;
4138;SDS011;2083;51.034;6.996;2022-12-18T07:49:27;2.20;;;1.70;;
4138;SDS011;2083;51.034;6.996;2022-12-18T07:51:56;2.43;;;1.80;;
4138;SDS011;2083;51.034;6.996;2022-12-18T07:54:23;6.37;;;3.27;;
4138;SDS011;2083;51.034;6.996;2022-12-18T07:56:49;5.30;;;2.60;;
4138;SDS011;2083;51.034;6.996;2022-12-18T07:59:17;1.23;;;1.13;;
4138;SDS011;2083;51.034;6.996;2022-12-18T08:01:43;1.87;;;1.70;;
4138;SDS011;2083;51.034;6.996;2022-12-18T08:04:09;5.63;;;3.93;;
4138;SDS011;2083;51.034;6.996;2022-12-18T08:06:35;2.63;;;2.50;;
4138;SDS011;2083;51.034;6.996;2022-12-18T08:09:01;6.27;;;3.77;;
4138;SDS011;2083;51.034;6.996;2022-12-18T08:11:27;2.10;;;2.00;;
4138;SDS011;2083;51.034;6.996;2022-12-18T08:13:54;0.83;;;0.83;;
4138;SDS011;2083;51.034;6.996;2022-12-18T08:16:20;2.30;;;1.60;;
4138;SDS011;2083;51.034;6.996;2022-12-18T08:18:46;3.70;;;3.50;;
4138;SDS011;2083;51.034;6.996;2022-12-18T08:21:13;80.97;;;5.23;;
4138;SDS011;2083;51.034;6.996;2022-12-18T08:23:40;3.87;;;3.57;;
4138;SDS011;2083;51.034;6.996;2022-12-18T08:26:07;2.00;;;1.90;;
4138;SDS011;2083;51.034;6.996;2022-12-18T08:28:33;8.10;;;2.73;;
4138;SDS011;2083;51.034;6.996;2022-12-18T08:30:59;1.50;;;1.43;;
4138;SDS011;2083;51.034;6.996;2022-12-18T08:33:26;6.43;;;2.40;;
4138;SDS011;2083;51.034;6.996;2022-12-18T08:35:52;2.03;;;1.93;;
4138;SDS011;2083;51.034;6.996;2022-12-18T08:38:18;5.57;;;3.57;;
4138;SDS011;2083;51.034;6.996;2022-12-18T08:40:44;2.13;;;1.87;;
4138;SDS011;2083;51.034;6.996;2022-12-18T08:43:10;4.23;;;2.63;;
4138;SDS011;2083;51.034;6.996;2022-12-18T08:45:55;7.30;;;5.30;;
4138;SDS011;2083;51.034;6.996;2022-12-18T08:48:21;4.63;;;2.10;;
4138;SDS011;2083;51.034;6.996;2022-12-18T08:50:54;1.97;;;1.90;;
4138;SDS011;2083;51.034;6.996;2022-12-18T08:53:20;1.13;;;1.13;;
4138;SDS011;2083;51.034;6.996;2022-12-18T08:55:46;1.83;;;1.73;;
4138;SDS011;2083;51.034;6.996;2022-12-18T08:58:12;3.90;;;3.70;;
4138;SDS011;2083;51.034;6.996;2022-12-18T09:00:38;6.70;;;5.33;;
4138;SDS011;2083;51.034;6.996;2022-12-18T09:03:04;1.47;;;1.47;;
4138;SDS011;2083;51.034;6.996;2022-12-18T09:05:30;0.40;;;0.30;;
4138;SDS011;2083;51.034;6.996;2022-12-18T09:07:55;1.00;;;1.00;;
4138;SDS011;2083;51.034;6.996;2022-12-18T09:10:21;2.10;;;2.03;;
4138;SDS011;2083;51.034;6.996;2022-12-18T09:12:47;4.20;;;1.40;;
4138;SDS011;2083;51.034;6.996;2022-12-18T09:15:13;1.37;;;1.37;;
4138;SDS011;2083;51.034;6.996;2022-12-18T09:17:39;1.93;;;1.73;;
4138;SDS011;2083;51.034;6.996;2022-12-18T09:20:05;3.43;;;3.10;;
4138;SDS011;2083;51.034;6.996;2022-12-18T09:22:31;2.23;;;2.13;;
4138;SDS011;2083;51.034;6.996;2022-12-18T09:24:57;1.73;;;1.67;;
4138;SDS011;2083;51.034;6.996;2022-12-18T09:27:23;2.50;;;2.30;;
4138;SDS011;2083;51.034;6.996;2022-12-18T09:29:49;1.97;;;1.87;;
4138;SDS011;2083;51.034;6.996;2022-12-18T09:32:15;2.20;;;1.93;;
4138;SDS011;2083;51.034;6.996;2022-12-18T09:34:41;1.83;;;1.73;;
4138;SDS011;2083;51.034;6.996;2022-12-18T09:37:07;2.97;;;2.40;;
4138;SDS011;2083;51.034;6.996;2022-12-18T09:39:33;2.97;;;2.77;;
4138;SDS011;2083;51.034;6.996;2022-12-18T09:41:59;6.00;;;3.77;;
4138;SDS011;2083;51.034;6.996;2022-12-18T09:46:57;1.83;;;1.43;;
4138;SDS011;2083;51.034;6.996;2022-12-18T09:49:26;1.40;;;1.33;;
4138;SDS011;2083;51.034;6.996;2022-12-18T09:51:55;3.43;;;2.80;;
4138;SDS011;2083;51.034;6.996;2022-12-18T09:54:30;2.97;;;2.27;;
4138;SDS011;2083;51.034;6.996;2022-12-18T09:56:57;4.47;;;2.57;;
4138;SDS011;2083;51.034;6.996;2022-12-18T09:59:24;5.30;;;3.60;;
4138;SDS011;2083;51.034;6.996;2022-12-18T10:01:51;3.13;;;2.63;;
4138;SDS011;2083;51.034;6.996;2022-12-18T10:04:17;4.73;;;3.97;;
4138;SDS011;2083;51.034;6.996;2022-12-18T10:09:33;4.70;;;4.03;;
4138;SDS011;2083;51.034;6.996;2022-12-18T10:19:55;5.47;;;4.10;;
4138;SDS011;2083;51.034;6.996;2022-12-18T10:22:43;8.50;;;6.63;;
4138;SDS011;2083;51.034;6.996;2022-12-18T10:27:39;0.60;;;0.60;;
4138;SDS011;2083;51.034;6.996;2022-12-18T10:30:38;2.17;;;1.67;;
4138;SDS011;2083;51.034;6.996;2022-12-18T10:33:00;11.03;;;5.00;;
4138;SDS011;2083;51.034;6.996;2022-12-18T10:35:26;0.50;;;0.47;;
4138;SDS011;2083;51.034;6.996;2022-12-18T10:38:27;7.63;;;3.83;;
4138;SDS011;2083;51.034;6.996;2022-12-18T10:40:56;4.57;;;2.77;;
4138;SDS011;2083;51.034;6.996;2022-12-18T10:43:26;3.20;;;2.33;;
4138;SDS011;2083;51.034;6.996;2022-12-18T10:46:01;7.20;;;5.20;;
4138;SDS011;2083;51.034;6.996;2022-12-18T10:48:27;3.30;;;1.80;;
4138;SDS011;2083;51.034;6.996;2022-12-18T10:50:54;3.80;;;1.70;;
4138;SDS011;2083;51.034;6.996;2022-12-18T10:53:22;6.23;;;2.10;;
4138;SDS011;2083;51.034;6.996;2022-12-18T10:55:49;0.90;;;0.77;;
4138;SDS011;2083;51.034;6.996;2022-12-18T10:58:20;0.60;;;0.60;;
4138;SDS011;2083;51.034;6.996;2022-12-18T11:01:01;0.40;;;0.33;;
4138;SDS011;2083;51.034;6.996;2022-12-18T11:03:31;12.27;;;4.13;;
4138;SDS011;2083;51.034;6.996;2022-12-18T11:06:07;5.20;;;2.40;;
4138;SDS011;2083;51.034;6.996;2022-12-18T11:08:34;0.97;;;0.90;;
4138;SDS011;2083;51.034;6.996;2022-12-18T11:11:00;3.70;;;2.27;;
4138;SDS011;2083;51.034;6.996;2022-12-18T11:13:28;2.00;;;1.90;;
4138;SDS011;2083;51.034;6.996;2022-12-18T11:15:54;4.20;;;3.00;;
4138;SDS011;2083;51.034;6.996;2022-12-18T11:18:32;3.50;;;2.40;;
4138;SDS011;2083;51.034;6.996;2022-12-18T11:21:00;2.73;;;2.63;;
4138;SDS011;2083;51.034;6.996;2022-12-18T11:23:27;2.00;;;1.90;;
4138;SDS011;2083;51.034;6.996;2022-12-18T11:25:54;3.13;;;3.03;;
4138;SDS011;2083;51.034;6.996;2022-12-18T11:28:37;2.33;;;1.83;;
4138;SDS011;2083;51.034;6.996;2022-12-18T11:36:17;2.80;;;2.30;;
4138;SDS011;2083;51.034;6.996;2022-12-18T11:38:43;7.53;;;4.53;;
4138;SDS011;2083;51.034;6.996;2022-12-18T11:43:38;7.37;;;5.60;;
4138;SDS011;2083;51.034;6.996;2022-12-18T11:46:16;5.83;;;4.07;;
4138;SDS011;2083;51.034;6.996;2022-12-18T11:51:35;3.53;;;3.33;;
4138;SDS011;2083;51.034;6.996;2022-12-18T11:54:12;3.77;;;3.40;;
4138;SDS011;2083;51.034;6.996;2022-12-18T12:04:34;1.30;;;1.30;;
4138;SDS011;2083;51.034;6.996;2022-12-18T12:07:17;3.77;;;2.27;;
4138;SDS011;2083;51.034;6.996;2022-12-18T12:09:51;4.47;;;4.00;;
4138;SDS011;2083;51.034;6.996;2022-12-18T12:12:31;4.20;;;3.33;;
4138;SDS011;2083;51.034;6.996;2022-12-18T12:17:49;7.60;;;4.97;;
4138;SDS011;2083;51.034;6.996;2022-12-18T12:23:31;4.63;;;4.20;;
4138;SDS011;2083;51.034;6.996;2022-12-18T12:26:06;3.33;;;2.03;;
4138;SDS011;2083;51.034;6.996;2022-12-18T12:33:57;9.40;;;6.30;;
4138;SDS011;2083;51.034;6.996;2022-12-18T12:36:28;5.23;;;4.73;;
4138;SDS011;2083;51.034;6.996;2022-12-18T12:38:57;13.73;;;5.90;;
4138;SDS011;2083;51.034;6.996;2022-12-18T12:41:27;10.43;;;8.00;;
4138;SDS011;2083;51.034;6.996;2022-12-18T12:44:16;3.53;;;3.20;;
4138;SDS011;2083;51.034;6.996;2022-12-18T12:46:42;3.27;;;3.00;;
4138;SDS011;2083;51.034;6.996;2022-12-18T12:49:10;7.67;;;4.17;;
4138;SDS011;2083;51.034;6.996;2022-12-18T12:51:38;7.87;;;5.00;;
4138;SDS011;2083;51.034;6.996;2022-12-18T12:54:06;3.50;;;3.30;;
4138;SDS011;2083;51.034;6.996;2022-12-18T12:57:00;0.97;;;0.97;;
4138;SDS011;2083;51.034;6.996;2022-12-18T13:02:06;10.20;;;3.73;;
4138;SDS011;2083;51.034;6.996;2022-12-18T13:04:43;7.60;;;4.50;;
4138;SDS011;2083;51.034;6.996;2022-12-18T13:07:27;6.43;;;3.17;;
4138;SDS011;2083;51.034;6.996;2022-12-18T13:17:49;2.90;;;2.70;;
4138;SDS011;2083;51.034;6.996;2022-12-18T13:20:32;10.40;;;5.63;;
4138;SDS011;2083;51.034;6.996;2022-12-18T13:22:58;3.30;;;2.53;;
4138;SDS011;2083;51.034;6.996;2022-12-18T13:27:59;6.70;;;4.63;;
4138;SDS011;2083;51.034;6.996;2022-12-18T13:38:21;9.13;;;4.93;;
4138;SDS011;2083;51.034;6.996;2022-12-18T13:48:32;4.77;;;4.40;;
4138;SDS011;2083;51.034;6.996;2022-12-18T13:51:03;4.67;;;4.20;;
4138;SDS011;2083;51.034;6.996;2022-12-18T13:53:30;11.13;;;5.43;;
4138;SDS011;2083;51.034;6.996;2022-12-18T13:55:58;7.63;;;4.80;;
4138;SDS011;2083;51.034;6.996;2022-12-18T13:58:24;11.73;;;5.10;;
4138;SDS011;2083;51.034;6.996;2022-12-18T14:00:50;8.97;;;4.00;;
4138;SDS011;2083;51.034;6.996;2022-12-18T14:03:17;9.07;;;6.10;;
4138;SDS011;2083;51.034;6.996;2022-12-18T14:05:44;4.87;;;3.20;;
4138;SDS011;2083;51.034;6.996;2022-12-18T14:08:12;5.80;;;5.40;;
4138;SDS011;2083;51.034;6.996;2022-12-18T14:10:42;2.43;;;1.97;;
4138;SDS011;2083;51.034;6.996;2022-12-18T14:13:09;4.53;;;2.37;;
4138;SDS011;2083;51.034;6.996;2022-12-18T14:15:39;2.43;;;1.80;;
4138;SDS011;2083;51.034;6.996;2022-12-18T14:20:59;10.20;;;4.43;;
4138;SDS011;2083;51.034;6.996;2022-12-18T14:23:31;3.03;;;2.83;;
4138;SDS011;2083;51.034;6.996;2022-12-18T14:25:57;15.97;;;6.27;;
4138;SDS011;2083;51.034;6.996;2022-12-18T14:28:23;8.63;;;2.67;;
4138;SDS011;2083;51.034;6.996;2022-12-18T14:30:50;12.70;;;7.97;;
4138;SDS011;2083;51.034;6.996;2022-12-18T14:33:17;6.67;;;4.67;;
4138;SDS011;2083;51.034;6.996;2022-12-18T14:36:00;24.17;;;10.00;;
4138;SDS011;2083;51.034;6.996;2022-12-18T14:38:36;6.53;;;4.70;;
4138;SDS011;2083;51.034;6.996;2022-12-18T14:41:04;3.87;;;2.20;;
4138;SDS011;2083;51.034;6.996;2022-12-18T14:43:32;4.83;;;3.03;;
4138;SDS011;2083;51.034;6.996;2022-12-18T14:45:58;7.63;;;4.97;;
4138;SDS011;2083;51.034;6.996;2022-12-18T14:48:38;3.30;;;2.47;;
4138;SDS011;2083;51.034;6.996;2022-12-18T14:51:20;5.87;;;4.67;;
4138;SDS011;2083;51.034;6.996;2022-12-18T14:54:06;3.40;;;3.07;;
4138;SDS011;2083;51.034;6.996;2022-12-18T14:56:43;4.67;;;3.27;;
4138;SDS011;2083;51.034;6.996;2022-12-18T14:59:14;2.07;;;1.73;;
4138;SDS011;2083;51.034;6.996;2022-12-18T15:01:51;7.60;;;3.73;;
4138;SDS011;2083;51.034;6.996;2022-12-18T15:04:24;8.90;;;5.57;;
4138;SDS011;2083;51.034;6.996;2022-12-18T15:07:02;8.03;;;3.40;;
4138;SDS011;2083;51.034;6.996;2022-12-18T15:09:28;15.03;;;6.60;;
4138;SDS011;2083;51.034;6.996;2022-12-18T15:11:55;9.43;;;2.57;;
4138;SDS011;2083;51.034;6.996;2022-12-18T15:17:03;6.30;;;4.93;;
4138;SDS011;2083;51.034;6.996;2022-12-18T15:21:59;8.87;;;3.20;;
4138;SDS011;2083;51.034;6.996;2022-12-18T15:24:26;10.80;;;7.10;;
4138;SDS011;2083;51.034;6.996;2022-12-18T15:26:53;7.97;;;5.40;;
4138;SDS011;2083;51.034;6.996;2022-12-18T15:29:20;11.30;;;4.70;;
4138;SDS011;2083;51.034;6.996;2022-12-18T15:31:57;19.43;;;10.00;;
4138;SDS011;2083;51.034;6.996;2022-12-18T15:34:23;5.93;;;3.00;;
4138;SDS011;2083;51.034;6.996;2022-12-18T15:36:51;16.03;;;11.93;;
4138;SDS011;2083;51.034;6.996;2022-12-18T15:39:17;4.27;;;2.87;;
4138;SDS011;2083;51.034;6.996;2022-12-18T15:41:43;7.60;;;2.00;;
4138;SDS011;2083;51.034;6.996;2022-12-18T15:44:29;7.13;;;4.10;;
4138;SDS011;2083;51.034;6.996;2022-12-18T15:46:55;12.57;;;6.57;;
4138;SDS011;2083;51.034;6.996;2022-12-18T15:49:21;9.30;;;6.60;;
4138;SDS011;2083;51.034;6.996;2022-12-18T15:51:49;5.80;;;4.20;;
4138;SDS011;2083;51.034;6.996;2022-12-18T15:54:17;11.77;;;7.27;;
4138;SDS011;2083;51.034;6.996;2022-12-18T15:57:03;8.30;;;5.97;;
4138;SDS011;2083;51.034;6.996;2022-12-18T15:59:47;7.70;;;3.57;;
4138;SDS011;2083;51.034;6.996;2022-12-18T16:02:15;13.90;;;7.53;;
4138;SDS011;2083;51.034;6.996;2022-12-18T16:04:42;18.30;;;6.83;;
4138;SDS011;2083;51.034;6.996;2022-12-18T16:07:09;14.30;;;9.03;;
4138;SDS011;2083;51.034;6.996;2022-12-18T16:09:36;7.43;;;6.77;;
4138;SDS011;2083;51.034;6.996;2022-12-18T16:12:03;13.20;;;6.37;;
4138;SDS011;2083;51.034;6.996;2022-12-18T16:14:29;9.53;;;5.70;;
4138;SDS011;2083;51.034;6.996;2022-12-18T16:16:56;9.63;;;7.03;;
4138;SDS011;2083;51.034;6.996;2022-12-18T16:19:23;3.37;;;3.07;;
4138;SDS011;2083;51.034;6.996;2022-12-18T16:21:49;18.20;;;8.23;;
4138;SDS011;2083;51.034;6.996;2022-12-18T16:24:16;11.80;;;4.00;;
4138;SDS011;2083;51.034;6.996;2022-12-18T16:26:43;9.37;;;6.10;;
4138;SDS011;2083;51.034;6.996;2022-12-18T16:29:09;10.97;;;4.97;;
4138;SDS011;2083;51.034;6.996;2022-12-18T16:31:35;13.37;;;7.37;;
4138;SDS011;2083;51.034;6.996;2022-12-18T16:34:09;11.70;;;6.60;;
4138;SDS011;2083;51.034;6.996;2022-12-18T16:36:35;13.60;;;8.27;;
4138;SDS011;2083;51.034;6.996;2022-12-18T16:39:01;25.83;;;11.13;;
4138;SDS011;2083;51.034;6.996;2022-12-18T16:41:27;17.33;;;10.53;;
4138;SDS011;2083;51.034;6.996;2022-12-18T16:43:56;28.40;;;13.53;;
4138;SDS011;2083;51.034;6.996;2022-12-18T16:46:22;15.60;;;9.73;;
4138;SDS011;2083;51.034;6.996;2022-12-18T16:48:48;7.90;;;5.57;;
4138;SDS011;2083;51.034;6.996;2022-12-18T16:51:14;4.00;;;3.47;;
4138;SDS011;2083;51.034;6.996;2022-12-18T16:53:40;16.10;;;7.83;;
4138;SDS011;2083;51.034;6.996;2022-12-18T16:56:06;13.63;;;7.00;;
4138;SDS011;2083;51.034;6.996;2022-12-18T16:58:32;30.20;;;11.10;;
4138;SDS011;2083;51.034;6.996;2022-12-18T17:00:58;9.07;;;8.13;;
4138;SDS011;2083;51.034;6.996;2022-12-18T17:03:24;10.60;;;8.47;;